createdAt,value
2017-09-01T00:02:05.983Z,12.98
2017-09-01T00:04:33.488Z,13.10
2017-09-01T00:07:01.975Z,14.98
2017-09-01T00:09:29.511Z,14.87
2017-09-01T00:11:57.054Z,14.13
2017-09-01T00:14:24.594Z,13.75
2017-09-01T00:16:52.173Z,14.60
2017-09-01T00:19:19.708Z,15.02
2017-09-01T00:21:47.975Z,13.15
2017-09-01T00:24:15.711Z,12.60
2017-09-01T00:26:43.646Z,12.32
2017-09-01T00:29:11.547Z,14.20
2017-09-01T00:31:39.069Z,14.75
2017-09-01T00:34:09.901Z,13.55
2017-09-01T00:36:45.042Z,13.07
2017-09-01T00:39:12.597Z,13.45
2017-09-01T00:41:42.045Z,14.02
2017-09-01T00:44:13.047Z,13.45
2017-09-01T00:46:44.395Z,12.75
2017-09-01T00:49:11.911Z,13.62
2017-09-01T00:51:39.476Z,14.70
2017-09-01T00:54:07.016Z,13.07
2017-09-01T00:56:34.564Z,12.77
2017-09-01T00:59:06.281Z,13.35
2017-09-01T01:01:33.794Z,12.80
2017-09-01T01:04:01.755Z,14.00
2017-09-01T01:06:29.258Z,14.73
2017-09-01T01:08:56.776Z,17.33
2017-09-01T01:11:24.288Z,13.30
2017-09-01T01:13:55.022Z,13.40
2017-09-01T01:16:25.593Z,15.38
2017-09-01T01:18:53.107Z,12.32
2017-09-01T01:21:20.807Z,14.93
2017-09-01T01:23:48.342Z,14.55
2017-09-01T01:26:15.839Z,13.70
2017-09-01T01:28:46.740Z,14.63
2017-09-01T01:31:14.235Z,12.60
2017-09-01T01:33:41.791Z,14.32
2017-09-01T01:36:09.293Z,14.15
2017-09-01T01:38:36.799Z,13.93
2017-09-01T01:41:04.411Z,13.25
2017-09-01T01:43:32.906Z,15.15
2017-09-01T01:46:03.942Z,14.23
2017-09-01T01:48:31.509Z,12.35
2017-09-01T01:50:59.414Z,13.10
2017-09-01T01:53:26.915Z,14.30
2017-09-01T01:55:54.692Z,12.70
2017-09-01T01:58:22.195Z,14.52
2017-09-01T02:00:49.700Z,12.25
2017-09-01T02:03:17.374Z,11.75
2017-09-01T02:05:45.134Z,12.98
2017-09-01T02:08:13.229Z,15.32
2017-09-01T02:10:40.750Z,11.82
2017-09-01T02:13:08.269Z,11.80
2017-09-01T02:15:39.250Z,12.27
2017-09-01T02:18:07.283Z,13.73
2017-09-01T02:20:34.815Z,14.23
2017-09-01T02:23:02.835Z,12.85
2017-09-01T02:25:30.644Z,12.20
2017-09-01T02:27:58.156Z,12.90
2017-09-01T02:30:25.660Z,13.00
2017-09-01T02:32:58.527Z,12.48
2017-09-01T02:35:26.294Z,12.57
2017-09-01T02:37:53.858Z,13.55
2017-09-01T02:40:21.383Z,12.88
2017-09-01T02:42:48.973Z,11.90
2017-09-01T02:45:20.424Z,11.63
2017-09-01T02:47:47.987Z,14.00
2017-09-01T02:50:15.547Z,11.00
2017-09-01T02:52:43.356Z,12.23
2017-09-01T02:55:10.870Z,11.95
2017-09-01T02:57:38.652Z,11.55
2017-09-01T03:00:06.166Z,11.00
2017-09-01T03:02:33.838Z,10.15
2017-09-01T03:05:05.288Z,11.43
2017-09-01T03:07:32.879Z,10.15
2017-09-01T03:10:00.428Z,10.93
2017-09-01T03:12:27.952Z,11.23
2017-09-01T03:14:55.572Z,12.30
2017-09-01T03:17:26.995Z,12.15
2017-09-01T03:20:02.011Z,9.98
2017-09-01T03:22:29.533Z,12.13
2017-09-01T03:24:57.240Z,10.32
2017-09-01T03:27:24.769Z,9.38
2017-09-01T03:29:52.279Z,11.70
2017-09-01T03:32:19.789Z,9.63
2017-09-01T03:34:51.055Z,9.90
2017-09-01T03:37:18.575Z,9.35
2017-09-01T03:39:46.082Z,11.35
2017-09-01T03:42:13.584Z,9.93
2017-09-01T03:44:41.098Z,8.85
2017-09-01T03:47:12.027Z,12.00
2017-09-01T03:49:39.593Z,9.57
2017-09-01T03:52:07.095Z,8.82
2017-09-01T03:54:34.664Z,10.38
2017-09-01T03:57:02.192Z,12.13
2017-09-01T03:59:30.189Z,10.20
2017-09-01T04:01:57.691Z,13.05
2017-09-01T04:04:31.635Z,13.13
2017-09-01T04:06:59.147Z,12.00
2017-09-01T04:09:26.663Z,11.85
2017-09-01T04:11:54.190Z,12.77
2017-09-01T04:14:21.984Z,10.57
2017-09-01T04:16:53.500Z,12.93
2017-09-01T04:19:24.275Z,10.73
2017-09-01T04:21:51.816Z,11.50
2017-09-01T04:24:19.403Z,13.18
2017-09-01T04:26:46.967Z,11.25
2017-09-01T04:29:14.523Z,12.25
2017-09-01T04:31:42.063Z,12.75
2017-09-01T04:34:12.851Z,10.13
2017-09-01T04:36:40.356Z,11.70
2017-09-01T04:39:12.289Z,13.43
2017-09-01T04:41:39.811Z,12.52
2017-09-01T04:44:07.485Z,11.20
2017-09-01T04:46:35.015Z,11.30
2017-09-01T04:49:02.733Z,12.23
2017-09-01T04:51:30.286Z,10.82
2017-09-01T04:53:57.813Z,10.45
2017-09-01T04:56:25.896Z,10.40
2017-09-01T04:58:53.456Z,10.93
2017-09-01T05:01:21.037Z,10.85
2017-09-01T05:03:48.543Z,10.27
2017-09-01T05:06:19.849Z,9.40
2017-09-01T05:08:47.388Z,10.07
2017-09-01T05:11:14.919Z,9.88
2017-09-01T05:13:42.800Z,11.27
2017-09-01T05:16:10.320Z,10.00
2017-09-01T05:18:44.502Z,9.10
2017-09-01T05:21:12.067Z,11.52
2017-09-01T05:23:39.845Z,10.65
2017-09-01T05:26:07.389Z,10.73
2017-09-01T05:28:34.894Z,9.00
2017-09-01T05:31:02.449Z,9.35
2017-09-01T05:33:29.992Z,10.18
2017-09-01T05:35:57.536Z,9.18
2017-09-01T05:38:29.987Z,11.18
2017-09-01T05:40:57.522Z,12.05
2017-09-01T05:43:25.464Z,8.20
2017-09-01T05:45:52.984Z,9.73
2017-09-01T05:48:24.153Z,10.18
2017-09-01T05:50:51.668Z,11.00
2017-09-01T05:53:19.393Z,9.77
2017-09-01T05:55:46.907Z,9.27
2017-09-01T05:58:14.443Z,8.52
2017-09-01T06:00:41.983Z,9.32
2017-09-01T06:03:09.491Z,9.20
2017-09-01T06:05:40.948Z,10.25
2017-09-01T06:08:08.947Z,10.00
2017-09-01T06:10:36.475Z,9.63
2017-09-01T06:13:04.005Z,9.10
2017-09-01T06:15:31.516Z,8.80
2017-09-01T06:17:59.014Z,9.75
2017-09-01T06:20:26.532Z,8.98
2017-09-01T06:22:57.692Z,9.50
2017-09-01T06:25:25.202Z,10.07
2017-09-01T06:27:53.069Z,8.82
2017-09-01T06:30:20.573Z,9.55
2017-09-01T06:32:48.082Z,9.98
2017-09-01T06:35:22.850Z,9.50
2017-09-01T06:37:50.411Z,7.65
2017-09-01T06:40:17.906Z,9.57
2017-09-01T06:42:45.798Z,10.18
2017-09-01T06:45:13.299Z,7.65
2017-09-01T06:47:40.899Z,9.30
2017-09-01T06:50:10.596Z,8.00
2017-09-01T06:52:38.888Z,9.88
2017-09-01T06:55:10.038Z,7.80
2017-09-01T06:57:40.263Z,8.30
2017-09-01T07:00:07.772Z,8.90
2017-09-01T07:02:35.274Z,7.62
2017-09-01T07:05:06.612Z,8.73
2017-09-01T07:07:37.460Z,7.97
2017-09-01T07:10:05.130Z,8.43
2017-09-01T07:12:33.080Z,8.02
2017-09-01T07:15:00.624Z,9.32
2017-09-01T07:17:28.477Z,7.37
2017-09-01T07:20:00.290Z,7.43
2017-09-01T07:22:31.684Z,8.32
2017-09-01T07:24:59.182Z,9.30
2017-09-01T07:27:33.758Z,9.13
2017-09-01T07:30:01.279Z,9.90
2017-09-01T07:32:28.780Z,8.90
2017-09-01T07:34:57.291Z,8.45
2017-09-01T07:37:24.869Z,8.93
2017-09-01T07:39:53.367Z,7.93
2017-09-01T07:42:20.876Z,8.65
2017-09-01T07:44:48.377Z,8.30
2017-09-01T07:47:15.911Z,8.60
2017-09-01T07:49:43.411Z,8.23
2017-09-01T07:52:10.911Z,9.60
2017-09-01T07:54:41.879Z,7.55
2017-09-01T07:57:09.394Z,7.70
2017-09-01T07:59:37.818Z,9.40
2017-09-01T08:02:05.328Z,9.20
2017-09-01T08:04:32.839Z,9.27
2017-09-01T08:07:00.369Z,7.72
2017-09-01T08:09:27.878Z,9.30
2017-09-01T08:11:55.376Z,8.73
2017-09-01T08:14:23.648Z,7.50
2017-09-01T08:16:51.159Z,7.70
2017-09-01T08:19:18.703Z,7.85
2017-09-01T08:21:46.216Z,7.10
2017-09-01T08:24:13.731Z,8.20
2017-09-01T08:26:42.650Z,7.75
2017-09-01T08:29:10.340Z,8.10
2017-09-01T08:31:37.851Z,7.45
2017-09-01T08:34:05.379Z,6.70
2017-09-01T08:36:36.903Z,7.18
2017-09-01T08:39:04.411Z,7.32
2017-09-01T08:41:39.243Z,7.80
2017-09-01T08:44:06.749Z,7.43
2017-09-01T08:46:34.687Z,7.95
2017-09-01T08:49:02.203Z,7.93
2017-09-01T08:51:32.686Z,8.13
2017-09-01T08:54:04.807Z,9.18
2017-09-01T08:56:32.345Z,7.90
2017-09-01T08:59:00.614Z,9.70
2017-09-01T09:01:28.116Z,8.43
2017-09-01T09:03:55.734Z,8.60
2017-09-01T09:06:23.296Z,9.77
2017-09-01T09:08:50.864Z,9.77
2017-09-01T09:11:18.406Z,9.20
2017-09-01T09:13:45.990Z,9.10
2017-09-01T09:16:13.666Z,9.93
2017-09-01T09:18:41.192Z,8.68
2017-09-01T09:21:08.691Z,9.18
2017-09-01T09:23:36.200Z,9.77
2017-09-01T09:26:03.706Z,9.40
2017-09-01T09:28:31.271Z,8.50
2017-09-01T09:30:58.812Z,9.70
2017-09-01T09:33:26.872Z,9.57
2017-09-01T09:35:54.688Z,10.43
2017-09-01T09:38:22.197Z,11.57
2017-09-01T09:40:54.232Z,11.40
2017-09-01T09:43:22.504Z,11.18
2017-09-01T09:45:53.078Z,9.93
2017-09-01T09:48:24.529Z,9.30
2017-09-01T09:50:52.034Z,8.90
2017-09-01T09:53:23.132Z,8.57
2017-09-01T09:55:51.000Z,10.15
2017-09-01T09:58:18.527Z,9.20
2017-09-01T10:00:46.024Z,9.27
2017-09-01T10:03:13.555Z,9.27
2017-09-01T10:05:41.099Z,8.52
2017-09-01T10:08:08.712Z,10.05
2017-09-01T10:10:36.499Z,9.48
2017-09-01T10:13:04.018Z,7.65
2017-09-01T10:15:31.556Z,9.82
2017-09-01T10:17:59.137Z,8.70
2017-09-01T10:20:26.639Z,8.40
2017-09-01T10:22:54.139Z,9.35
2017-09-01T10:25:28.932Z,7.45
2017-09-01T10:28:00.723Z,6.72
2017-09-01T10:30:28.491Z,6.97
2017-09-01T10:32:55.997Z,7.15
2017-09-01T10:35:23.534Z,6.05
2017-09-01T10:37:55.773Z,7.45
2017-09-01T10:40:23.367Z,7.97
2017-09-01T10:42:50.876Z,7.80
2017-09-01T10:45:18.384Z,8.25
2017-09-01T10:47:57.976Z,7.45
2017-09-01T10:50:38.143Z,7.80
2017-09-01T10:53:21.067Z,7.57
2017-09-01T10:56:00.209Z,8.98
2017-09-01T10:58:27.890Z,8.38
2017-09-01T11:00:55.430Z,8.55
2017-09-01T11:03:22.940Z,7.93
2017-09-01T11:05:50.507Z,8.02
2017-09-01T11:08:28.219Z,9.07
2017-09-01T11:10:55.718Z,8.45
2017-09-01T11:13:23.242Z,6.90
2017-09-01T11:15:50.744Z,8.15
2017-09-01T11:18:18.252Z,14.93
2017-09-01T11:20:51.495Z,8.10
2017-09-01T11:23:24.630Z,8.38
2017-09-01T11:25:55.200Z,9.15
2017-09-01T11:28:22.711Z,11.20
2017-09-01T11:30:50.261Z,8.27
2017-09-01T11:35:52.538Z,9.85
2017-09-01T11:38:20.759Z,10.68
2017-09-01T11:40:48.259Z,9.18
2017-09-01T11:43:23.978Z,9.95
2017-09-01T11:45:55.096Z,9.10
2017-09-01T11:48:22.976Z,9.27
2017-09-01T11:50:50.601Z,10.93
2017-09-01T11:53:18.115Z,9.45
2017-09-01T11:55:52.941Z,10.07
2017-09-01T11:58:20.705Z,7.90
2017-09-01T12:00:48.483Z,10.52
2017-09-01T12:03:16.024Z,10.07
2017-09-01T12:05:43.536Z,10.48
2017-09-01T12:08:11.392Z,10.25
2017-09-01T12:10:39.016Z,9.38
2017-09-01T12:13:06.535Z,9.88
2017-09-01T12:15:34.164Z,10.90
2017-09-01T12:18:02.047Z,12.18
2017-09-01T12:20:29.929Z,10.75
2017-09-01T12:22:57.502Z,11.63
2017-09-01T12:25:28.251Z,9.95
2017-09-01T12:27:56.229Z,9.10
2017-09-01T12:30:24.111Z,11.30
2017-09-01T12:32:51.894Z,11.38
2017-09-01T12:35:19.431Z,9.95
2017-09-01T12:37:46.939Z,10.82
2017-09-01T12:40:18.272Z,11.73
2017-09-01T12:42:45.775Z,11.90
2017-09-01T12:45:13.290Z,10.80
2017-09-01T12:47:40.995Z,11.02
2017-09-01T12:50:08.539Z,10.52
2017-09-01T12:52:36.091Z,12.48
2017-09-01T12:55:03.615Z,10.55
2017-09-01T12:57:31.124Z,11.20
2017-09-01T12:59:59.127Z,10.38
2017-09-01T13:02:26.631Z,11.88
2017-09-01T13:04:54.162Z,10.75
2017-09-01T13:07:21.734Z,12.10
2017-09-01T13:09:49.242Z,11.57
2017-09-01T13:12:16.806Z,13.50
2017-09-01T13:14:44.403Z,15.35
2017-09-01T13:17:11.955Z,12.82
2017-09-01T13:19:39.496Z,13.77
2017-09-01T13:22:08.103Z,12.55
2017-09-01T13:24:35.639Z,14.50
2017-09-01T13:27:07.488Z,13.40
2017-09-01T13:29:35.040Z,12.35
2017-09-01T13:32:02.565Z,15.02
2017-09-01T13:34:30.150Z,13.60
2017-09-01T13:36:57.701Z,13.40
2017-09-01T13:39:25.261Z,14.10
2017-09-01T13:41:52.949Z,14.13
2017-09-01T13:44:24.175Z,13.48
2017-09-01T13:46:51.731Z,13.62
2017-09-01T13:49:19.338Z,13.35
2017-09-01T13:51:46.904Z,15.13
2017-09-01T13:54:14.452Z,12.75
2017-09-01T13:56:42.000Z,12.65
2017-09-01T13:59:13.470Z,14.00
2017-09-01T14:01:41.016Z,14.80
2017-09-01T14:04:08.831Z,12.25
2017-09-01T14:06:36.431Z,11.15
2017-09-01T14:09:03.956Z,12.27
2017-09-01T14:11:35.365Z,11.15
2017-09-01T14:14:02.985Z,10.18
2017-09-01T14:16:30.592Z,11.90
2017-09-01T14:18:58.167Z,12.10
2017-09-01T14:21:25.716Z,11.60
2017-09-01T14:23:53.233Z,12.90
2017-09-01T14:26:20.791Z,12.30
2017-09-01T14:28:48.303Z,12.07
2017-09-01T14:31:15.915Z,11.45
2017-09-01T14:33:47.087Z,11.63
2017-09-01T14:36:14.840Z,13.88
2017-09-01T14:38:42.344Z,13.35
2017-09-01T14:41:09.848Z,14.35
2017-09-01T14:43:37.365Z,13.13
2017-09-01T14:46:04.967Z,15.25
2017-09-01T14:48:32.480Z,12.88
2017-09-01T14:50:59.983Z,15.32
2017-09-01T14:53:27.517Z,13.07
2017-09-01T14:55:55.071Z,12.75
2017-09-01T14:58:22.581Z,13.70
2017-09-01T15:00:50.175Z,13.20
2017-09-01T15:03:17.871Z,12.00
2017-09-01T15:05:45.375Z,11.35
2017-09-01T15:08:12.945Z,11.43
2017-09-01T15:10:40.854Z,11.52
2017-09-01T15:13:08.385Z,10.93
2017-09-01T15:15:36.231Z,11.32
2017-09-01T15:18:03.752Z,11.20
2017-09-01T15:20:31.373Z,11.70
2017-09-01T15:22:58.882Z,11.63
2017-09-01T15:25:26.382Z,11.48
2017-09-01T15:27:53.891Z,10.43
2017-09-01T15:30:21.432Z,11.15
2017-09-01T15:32:49.039Z,11.65
2017-09-01T15:35:16.766Z,10.70
2017-09-01T15:37:44.298Z,10.00
2017-09-01T15:40:13.576Z,10.38
2017-09-01T15:42:41.124Z,8.63
2017-09-01T15:45:09.080Z,8.65
2017-09-01T15:47:40.282Z,6.62
2017-09-01T15:50:07.811Z,6.78
2017-09-01T15:52:35.332Z,21.00
2017-09-01T15:55:02.828Z,5.10
2017-09-01T15:57:30.339Z,5.25
2017-09-01T16:00:01.252Z,4.53
2017-09-01T16:02:29.022Z,5.05
2017-09-01T16:04:56.578Z,4.62
2017-09-01T16:07:24.223Z,5.40
2017-09-01T16:09:51.719Z,5.80
2017-09-01T16:12:19.226Z,6.20
2017-09-01T16:14:49.989Z,7.03
2017-09-01T16:17:17.523Z,5.85
2017-09-01T16:19:45.794Z,5.85
2017-09-01T16:22:13.296Z,6.60
2017-09-01T16:24:40.847Z,6.78
2017-09-01T16:27:08.353Z,6.32
2017-09-01T16:29:36.216Z,7.28
2017-09-01T16:32:03.729Z,7.07
2017-09-01T16:34:31.797Z,8.18
2017-09-01T16:36:59.308Z,8.45
2017-09-01T16:39:27.011Z,8.68
2017-09-01T16:41:54.503Z,8.52
2017-09-01T16:44:22.015Z,8.40
2017-09-01T16:46:50.313Z,8.68
2017-09-01T16:49:18.332Z,9.20
2017-09-01T16:51:45.877Z,8.50
2017-09-01T16:54:13.867Z,10.40
2017-09-01T16:56:41.408Z,10.32
2017-09-01T16:59:13.439Z,12.00
2017-09-01T17:01:41.013Z,9.85
2017-09-01T17:04:08.567Z,11.35
2017-09-01T17:06:36.065Z,11.80
2017-09-01T17:09:03.596Z,12.07
2017-09-01T17:11:31.147Z,10.95
2017-09-01T17:13:58.807Z,10.98
2017-09-01T17:16:26.936Z,9.90
2017-09-01T17:18:54.628Z,10.40
2017-09-01T17:21:22.431Z,10.55
2017-09-01T17:23:49.984Z,12.10
2017-09-01T17:26:17.483Z,28.67
2017-09-01T17:28:45.047Z,11.82
2017-09-01T17:31:12.579Z,11.07
2017-09-01T17:33:43.980Z,12.37
2017-09-01T17:36:11.671Z,11.00
2017-09-01T17:38:39.232Z,11.02
2017-09-01T17:41:06.769Z,10.82
2017-09-01T17:43:34.347Z,11.20
2017-09-01T17:46:05.527Z,13.20
2017-09-01T17:48:33.090Z,12.00
2017-09-01T17:51:00.648Z,11.45
2017-09-01T17:53:28.152Z,10.65
2017-09-01T17:55:55.651Z,11.52
2017-09-01T17:58:23.155Z,11.57
2017-09-01T18:00:57.673Z,11.20
2017-09-01T18:03:25.447Z,13.98
2017-09-01T18:05:56.378Z,13.73
2017-09-01T18:08:23.890Z,12.23
2017-09-01T18:10:51.498Z,12.20
2017-09-01T18:13:19.231Z,12.55
2017-09-01T18:15:46.741Z,15.52
2017-09-01T18:18:26.467Z,13.93
2017-09-01T18:20:53.971Z,14.27
2017-09-01T18:23:21.515Z,15.30
2017-09-01T18:25:49.394Z,16.65
2017-09-01T18:28:16.920Z,15.25
2017-09-01T18:30:44.432Z,16.37
2017-09-01T18:33:12.541Z,16.55
2017-09-01T18:35:43.371Z,14.20
2017-09-01T18:38:10.875Z,14.80
2017-09-01T18:40:38.751Z,14.25
2017-09-01T18:43:06.268Z,14.43
2017-09-01T18:45:33.892Z,13.57
2017-09-01T18:48:05.168Z,14.35
2017-09-01T18:50:33.218Z,14.13
2017-09-01T18:53:00.743Z,14.57
2017-09-01T18:55:28.285Z,12.07
2017-09-01T18:57:55.829Z,13.07
2017-09-01T19:00:23.548Z,14.48
2017-09-01T19:02:51.133Z,13.23
2017-09-01T19:05:18.667Z,13.60
2017-09-01T19:07:47.085Z,13.43
2017-09-01T19:10:14.608Z,12.73
2017-09-01T19:12:42.190Z,17.27
2017-09-01T19:15:09.892Z,14.50
2017-09-01T19:17:41.103Z,15.38
2017-09-01T19:20:08.866Z,16.20
2017-09-01T19:22:36.369Z,15.40
2017-09-01T19:25:03.883Z,16.05
2017-09-01T19:27:31.414Z,14.87
2017-09-01T19:29:59.104Z,15.85
2017-09-01T19:32:31.116Z,14.10
2017-09-01T19:35:01.597Z,13.50
2017-09-01T19:37:29.258Z,12.55
2017-09-01T19:40:00.800Z,12.98
2017-09-01T19:42:28.332Z,13.15
2017-09-01T19:44:55.876Z,12.48
2017-09-01T19:47:31.071Z,13.60
2017-09-01T19:49:58.609Z,14.05
2017-09-01T19:52:26.441Z,13.88
2017-09-01T19:54:53.950Z,13.70
2017-09-01T19:57:21.599Z,12.65
2017-09-01T19:59:49.116Z,13.23
2017-09-01T20:02:16.622Z,14.63
2017-09-01T20:04:44.901Z,13.10
2017-09-01T20:07:12.403Z,13.35
2017-09-01T20:09:39.940Z,12.02
2017-09-01T20:12:07.459Z,11.12
2017-09-01T20:14:35.319Z,11.10
2017-09-01T20:17:02.831Z,11.38
2017-09-01T20:19:30.351Z,12.95
2017-09-01T20:21:57.864Z,14.35
2017-09-01T20:24:25.440Z,12.93
2017-09-01T20:26:53.043Z,12.00
2017-09-01T20:29:20.631Z,10.55
2017-09-01T20:31:48.154Z,11.27
2017-09-01T20:34:15.654Z,10.63
2017-09-01T20:36:46.747Z,10.55
2017-09-01T20:39:14.269Z,10.30
2017-09-01T20:41:42.087Z,10.07
2017-09-01T20:44:09.683Z,10.30
2017-09-01T20:46:37.198Z,10.00
2017-09-01T20:49:04.703Z,10.07
2017-09-01T20:51:32.331Z,9.75
2017-09-01T20:53:59.827Z,9.93
2017-09-01T20:56:27.352Z,10.75
2017-09-01T20:58:55.067Z,9.63
2017-09-01T21:01:22.884Z,10.25
2017-09-01T21:03:54.243Z,8.95
2017-09-01T21:06:21.934Z,10.32
2017-09-01T21:08:49.447Z,9.73
2017-09-01T21:11:16.988Z,9.38
2017-09-01T21:13:44.759Z,9.23
2017-09-01T21:16:12.399Z,9.40
2017-09-01T21:18:39.895Z,9.73
2017-09-01T21:21:10.760Z,10.02
2017-09-01T21:23:38.271Z,11.05
2017-09-01T21:26:05.783Z,9.80
2017-09-01T21:28:36.975Z,10.02
2017-09-01T21:31:07.403Z,10.05
2017-09-01T21:33:34.962Z,10.75
2017-09-01T21:36:06.926Z,10.20
2017-09-01T21:38:34.435Z,9.07
2017-09-01T21:41:01.978Z,9.50
2017-09-01T21:43:29.500Z,7.95
2017-09-01T21:45:57.031Z,9.25
2017-09-01T21:48:24.567Z,8.60
2017-09-01T21:50:55.652Z,8.60
2017-09-01T21:53:23.381Z,9.32
2017-09-01T21:55:50.881Z,7.87
2017-09-01T21:58:18.539Z,8.45
2017-09-01T22:00:57.909Z,9.57
2017-09-01T22:03:25.513Z,9.73
2017-09-01T22:05:53.045Z,10.13
2017-09-01T22:08:20.618Z,11.38
2017-09-01T22:10:48.677Z,10.35
2017-09-01T22:13:17.280Z,10.00
2017-09-01T22:15:44.811Z,10.43
2017-09-01T22:18:12.491Z,12.13
2017-09-01T22:20:40.508Z,7.68
2017-09-01T22:23:08.017Z,9.35
2017-09-01T22:25:38.756Z,8.80
2017-09-01T22:28:06.274Z,9.50
2017-09-01T22:30:34.268Z,9.50
2017-09-01T22:33:01.851Z,10.35
2017-09-01T22:35:32.640Z,10.85
2017-09-01T22:38:00.159Z,9.95
2017-09-01T22:40:28.312Z,10.60
2017-09-01T22:42:56.569Z,8.90
2017-09-01T22:45:24.143Z,10.43
2017-09-01T22:47:51.850Z,9.20
2017-09-01T22:50:19.359Z,10.30
2017-09-01T22:52:50.423Z,10.88
2017-09-01T22:55:25.157Z,11.93
2017-09-01T22:57:53.617Z,11.93
2017-09-01T23:00:25.107Z,10.38
2017-09-01T23:02:52.705Z,14.40
2017-09-01T23:05:20.227Z,13.07
2017-09-01T23:07:47.728Z,13.82
2017-09-01T23:10:20.159Z,13.62
2017-09-01T23:12:48.602Z,13.65
2017-09-01T23:15:16.501Z,13.70
2017-09-01T23:17:44.012Z,12.18
2017-09-01T23:20:11.517Z,15.65
2017-09-01T23:22:39.056Z,14.95
2017-09-01T23:25:06.560Z,13.45
2017-09-01T23:27:34.067Z,13.50
2017-09-01T23:30:01.573Z,13.38
2017-09-01T23:32:29.701Z,14.80
2017-09-01T23:34:57.693Z,14.85
2017-09-01T23:37:25.375Z,13.50
2017-09-01T23:39:55.991Z,13.93
2017-09-01T23:42:23.631Z,15.15
2017-09-01T23:44:51.501Z,15.27
2017-09-01T23:47:19.184Z,15.70
2017-09-01T23:49:46.692Z,15.45
2017-09-01T23:52:20.651Z,16.17
2017-09-01T23:54:48.209Z,14.57
2017-09-01T23:57:15.869Z,13.90
2017-09-01T23:59:43.430Z,14.52
